createdAt,value
2018-01-01T00:01:26.631Z,3.05
2018-01-01T00:03:54.326Z,7.68
2018-01-01T00:06:22.728Z,5.53
2018-01-01T00:08:51.201Z,9.75
2018-01-01T00:11:19.535Z,11.18
2018-01-01T00:13:47.089Z,4.72
2018-01-01T00:16:14.655Z,9.20
2018-01-01T00:18:42.720Z,4.70
2018-01-01T00:21:10.377Z,6.55
2018-01-01T00:23:38.048Z,5.25
2018-01-01T00:26:05.609Z,11.32
2018-01-01T00:28:33.229Z,6.30
2018-01-01T00:31:01.473Z,5.70
2018-01-01T00:33:29.005Z,9.88
2018-01-01T00:35:57.337Z,10.80
2018-01-01T00:38:25.682Z,6.03
2018-01-01T00:40:53.325Z,6.15
2018-01-01T00:43:20.937Z,4.55
2018-01-01T00:45:49.318Z,3.87
2018-01-01T00:48:17.933Z,5.00
2018-01-01T00:50:46.246Z,11.02
2018-01-01T00:53:13.836Z,8.30
2018-01-01T00:55:42.280Z,4.03
2018-01-01T00:58:09.893Z,6.70
2018-01-01T01:00:37.422Z,8.77
2018-01-01T01:03:04.924Z,5.93
2018-01-01T01:05:32.526Z,5.57
2018-01-01T01:08:00.082Z,8.80
2018-01-01T01:10:27.584Z,3.53
2018-01-01T01:12:55.097Z,6.55
2018-01-01T01:15:23.409Z,7.85
2018-01-01T01:17:51.856Z,9.77
2018-01-01T01:20:20.237Z,6.70
2018-01-01T01:22:47.862Z,8.63
2018-01-01T01:25:16.143Z,9.35
2018-01-01T01:27:45.235Z,9.32
2018-01-01T01:30:12.901Z,3.67
2018-01-01T01:32:40.489Z,6.70
2018-01-01T01:35:08.183Z,4.68
2018-01-01T01:37:35.779Z,7.78
2018-01-01T01:40:03.269Z,9.23
2018-01-01T01:42:30.861Z,4.28
2018-01-01T01:44:59.923Z,6.05
2018-01-01T01:47:27.609Z,5.32
2018-01-01T01:49:55.873Z,10.10
2018-01-01T01:52:23.356Z,4.30
2018-01-01T01:54:51.680Z,3.65
2018-01-01T01:57:19.428Z,4.95
2018-01-01T01:59:46.922Z,3.40
2018-01-01T02:02:17.842Z,5.35
2018-01-01T02:04:45.385Z,3.67
2018-01-01T02:07:12.870Z,2.22
2018-01-01T02:09:40.343Z,6.35
2018-01-01T02:12:07.843Z,4.70
2018-01-01T02:14:35.318Z,3.67
2018-01-01T02:17:02.808Z,1.60
2018-01-01T02:19:31.105Z,3.42
2018-01-01T02:21:58.584Z,3.17
2018-01-01T02:24:27.547Z,2.25
2018-01-01T02:26:55.829Z,6.10
2018-01-01T02:29:23.489Z,4.20
2018-01-01T02:31:52.165Z,7.93
2018-01-01T02:34:19.831Z,2.60
2018-01-01T02:36:47.422Z,1.83
2018-01-01T02:39:16.423Z,3.65
2018-01-01T02:41:43.957Z,4.72
2018-01-01T02:44:11.644Z,2.53
2018-01-01T02:49:14.766Z,2.30
2018-01-01T02:51:42.327Z,4.35
2018-01-01T02:54:09.906Z,0.90
2018-01-01T02:56:37.558Z,2.05
2018-01-01T02:59:05.118Z,1.87
2018-01-01T03:01:32.761Z,1.17
2018-01-01T03:04:01.150Z,2.42
2018-01-01T03:06:28.636Z,1.30
2018-01-01T03:08:56.114Z,2.00
2018-01-01T03:11:23.766Z,3.70
2018-01-01T03:13:51.391Z,1.10
2018-01-01T03:16:19.044Z,2.50
2018-01-01T03:18:47.396Z,2.35
2018-01-01T03:21:15.150Z,3.22
2018-01-01T03:23:42.994Z,0.80
2018-01-01T03:26:10.737Z,1.37
2018-01-01T03:28:39.238Z,0.90
2018-01-01T03:31:06.866Z,1.12
2018-01-01T03:33:34.530Z,1.50
2018-01-01T03:36:02.893Z,6.50
2018-01-01T03:38:31.196Z,3.33
2018-01-01T03:40:58.844Z,1.40
2018-01-01T03:43:26.510Z,0.93
2018-01-01T03:45:54.062Z,0.93
2018-01-01T03:48:21.640Z,0.90
2018-01-01T03:50:49.486Z,0.70
2018-01-01T03:53:17.249Z,0.85
2018-01-01T03:55:44.753Z,2.97
2018-01-01T03:58:12.226Z,0.93
2018-01-01T04:00:39.718Z,1.40
2018-01-01T04:03:08.169Z,0.73
2018-01-01T04:05:35.879Z,1.67
2018-01-01T04:08:03.389Z,1.75
2018-01-01T04:10:31.810Z,1.08
2018-01-01T04:12:59.469Z,2.35
2018-01-01T04:15:28.008Z,3.62
2018-01-01T04:17:55.474Z,1.30
2018-01-01T04:20:23.123Z,3.45
2018-01-01T04:22:51.593Z,3.25
2018-01-01T04:25:19.065Z,1.87
2018-01-01T04:27:46.545Z,3.30
2018-01-01T04:30:14.212Z,1.55
2018-01-01T04:32:42.590Z,2.55
2018-01-01T04:35:10.062Z,2.12
2018-01-01T04:37:38.477Z,3.22
2018-01-01T04:40:06.102Z,5.07
2018-01-01T04:42:35.235Z,3.15
2018-01-01T04:45:02.765Z,3.05
2018-01-01T04:47:31.007Z,4.47
2018-01-01T04:49:58.477Z,3.17
2018-01-01T04:52:25.980Z,1.40
2018-01-01T04:54:53.731Z,2.67
2018-01-01T04:57:21.349Z,1.83
2018-01-01T04:59:48.841Z,2.95
2018-01-01T05:02:17.353Z,7.55
2018-01-01T05:04:44.825Z,1.87
2018-01-01T05:07:13.146Z,8.57
2018-01-01T05:09:40.677Z,1.33
2018-01-01T05:12:08.154Z,6.05
2018-01-01T05:14:35.659Z,1.65
2018-01-01T05:17:03.138Z,4.60
2018-01-01T05:19:31.558Z,2.00
2018-01-01T05:21:59.173Z,7.00
2018-01-01T05:24:26.734Z,5.32
2018-01-01T05:26:54.443Z,1.87
2018-01-01T05:29:22.734Z,3.90
2018-01-01T05:31:50.977Z,1.90
2018-01-01T05:34:18.461Z,2.28
2018-01-01T05:36:46.738Z,3.55
2018-01-01T05:39:14.984Z,2.90
2018-01-01T05:41:43.234Z,3.33
2018-01-01T05:44:11.649Z,2.35
2018-01-01T05:46:39.330Z,2.92
2018-01-01T05:49:06.864Z,3.53
2018-01-01T05:51:34.389Z,3.10
2018-01-01T05:54:01.874Z,9.55
2018-01-01T05:56:29.365Z,4.40
2018-01-01T05:58:56.924Z,6.55
2018-01-01T06:01:25.198Z,2.95
2018-01-01T06:03:52.739Z,2.85
2018-01-01T06:06:21.029Z,5.15
2018-01-01T06:08:48.494Z,3.78
2018-01-01T06:11:16.743Z,5.47
2018-01-01T06:13:44.233Z,5.20
2018-01-01T06:16:12.662Z,6.20
2018-01-01T06:18:40.146Z,9.32
2018-01-01T06:21:07.637Z,1.40
2018-01-01T06:23:37.609Z,2.37
2018-01-01T06:26:05.090Z,0.90
2018-01-01T06:28:32.614Z,2.15
2018-01-01T06:31:00.122Z,2.12
2018-01-01T06:33:28.366Z,5.43
2018-01-01T06:35:55.966Z,5.03
2018-01-01T06:38:24.250Z,2.03
2018-01-01T06:40:51.745Z,4.53
2018-01-01T06:43:19.415Z,4.40
2018-01-01T06:45:46.886Z,6.07
2018-01-01T06:48:14.368Z,3.28
2018-01-01T06:50:42.009Z,6.25
2018-01-01T06:53:09.485Z,2.53
2018-01-01T06:55:38.031Z,5.10
2018-01-01T06:58:05.522Z,5.57
2018-01-01T07:00:33.744Z,8.10
2018-01-01T07:03:01.226Z,4.03
2018-01-01T07:05:28.730Z,7.22
2018-01-01T07:07:56.970Z,12.10
2018-01-01T07:10:24.534Z,6.53
2018-01-01T07:12:52.093Z,2.42
2018-01-01T07:15:19.569Z,2.80
2018-01-01T07:17:47.208Z,6.40
2018-01-01T07:20:14.833Z,10.63
2018-01-01T07:22:42.301Z,7.05
2018-01-01T07:25:09.810Z,4.03
2018-01-01T07:27:37.355Z,4.75
2018-01-01T07:30:04.838Z,6.50
2018-01-01T07:32:33.106Z,8.40
2018-01-01T07:35:01.354Z,5.03
2018-01-01T07:37:28.842Z,2.75
2018-01-01T07:39:57.834Z,3.08
2018-01-01T07:42:25.450Z,4.32
2018-01-01T07:44:53.034Z,2.30
2018-01-01T07:47:20.718Z,3.42
2018-01-01T07:49:48.352Z,5.65
2018-01-01T07:52:16.506Z,4.87
2018-01-01T07:54:44.086Z,10.25
2018-01-01T07:57:11.640Z,7.22
2018-01-01T07:59:39.824Z,9.10
2018-01-01T08:02:08.512Z,4.18
2018-01-01T08:04:36.166Z,5.95
2018-01-01T08:07:03.637Z,4.28
2018-01-01T08:09:31.287Z,10.32
2018-01-01T08:11:58.837Z,6.55
2018-01-01T08:14:26.405Z,6.15
2018-01-01T08:16:53.956Z,5.40
2018-01-01T08:19:21.511Z,15.05
2018-01-01T08:21:49.385Z,7.07
2018-01-01T08:24:17.155Z,8.38
2018-01-01T08:26:44.819Z,4.60
2018-01-01T08:29:13.492Z,10.32
2018-01-01T08:31:41.250Z,4.22
2018-01-01T08:34:08.910Z,7.20
2018-01-01T08:36:36.593Z,5.90
2018-01-01T08:39:04.361Z,5.90
2018-01-01T08:41:32.830Z,4.62
2018-01-01T08:44:00.379Z,6.30
2018-01-01T08:46:28.043Z,5.87
2018-01-01T08:48:55.641Z,2.33
2018-01-01T08:51:23.303Z,3.50
2018-01-01T08:53:51.775Z,7.05
2018-01-01T08:56:20.317Z,5.35
2018-01-01T08:58:47.917Z,3.65
2018-01-01T09:01:16.368Z,5.85
2018-01-01T09:03:43.845Z,5.82
2018-01-01T09:06:11.606Z,6.82
2018-01-01T09:08:40.069Z,9.73
2018-01-01T09:11:07.835Z,13.70
2018-01-01T09:13:35.617Z,7.25
2018-01-01T09:16:03.263Z,10.57
2018-01-01T09:18:30.941Z,5.65
2018-01-01T09:20:59.394Z,5.80
2018-01-01T09:23:27.085Z,12.35
2018-01-01T09:25:55.570Z,6.15
2018-01-01T09:28:23.237Z,4.07
2018-01-01T09:30:51.873Z,5.65
2018-01-01T09:33:20.240Z,6.82
2018-01-01T09:35:47.848Z,9.95
2018-01-01T09:38:16.432Z,6.82
2018-01-01T09:40:44.092Z,9.43
2018-01-01T09:43:11.726Z,9.05
2018-01-01T09:45:39.544Z,13.23
2018-01-01T09:48:07.259Z,7.57
2018-01-01T09:50:34.940Z,5.93
2018-01-01T09:53:02.656Z,5.75
2018-01-01T09:55:30.176Z,7.00
2018-01-01T09:57:57.805Z,8.52
2018-01-01T10:00:26.318Z,4.18
2018-01-01T10:02:53.987Z,8.73
2018-01-01T10:05:21.642Z,11.90
2018-01-01T10:07:50.104Z,10.40
2018-01-01T10:10:18.671Z,11.35
2018-01-01T10:12:46.930Z,12.93
2018-01-01T10:15:15.359Z,12.98
2018-01-01T10:17:42.921Z,10.90
2018-01-01T10:20:10.546Z,10.13
2018-01-01T10:22:38.203Z,19.60
2018-01-01T10:25:06.615Z,10.88
2018-01-01T10:27:34.134Z,12.88
2018-01-01T10:30:02.562Z,10.68
2018-01-01T10:32:30.292Z,14.18
2018-01-01T10:34:57.947Z,14.52
2018-01-01T10:37:26.462Z,12.63
2018-01-01T10:39:54.295Z,14.70
2018-01-01T10:42:22.021Z,15.77
2018-01-01T10:44:49.768Z,10.30
2018-01-01T10:47:17.429Z,12.40
2018-01-01T10:49:45.278Z,12.13
2018-01-01T10:52:13.793Z,11.48
2018-01-01T10:54:41.310Z,14.25
2018-01-01T10:57:09.859Z,11.20
2018-01-01T10:59:37.737Z,13.95
2018-01-01T11:02:05.214Z,23.92
2018-01-01T11:04:32.855Z,11.88
2018-01-01T11:07:01.490Z,13.38
2018-01-01T11:09:28.979Z,18.00
2018-01-01T11:11:56.835Z,6.93
2018-01-01T11:14:24.443Z,14.87
2018-01-01T11:16:52.139Z,14.63
2018-01-01T11:19:19.895Z,13.30
2018-01-01T11:21:47.639Z,12.37
2018-01-01T11:24:15.448Z,15.75
2018-01-01T11:26:43.173Z,14.55
2018-01-01T11:29:10.977Z,12.27
2018-01-01T11:31:38.648Z,17.23
2018-01-01T11:34:06.246Z,12.75
2018-01-01T11:36:34.609Z,11.55
2018-01-01T11:39:02.204Z,17.52
2018-01-01T11:41:30.293Z,9.38
2018-01-01T11:43:58.667Z,14.52
2018-01-01T11:46:26.162Z,15.18
2018-01-01T11:48:53.735Z,16.05
2018-01-01T11:51:22.037Z,9.90
2018-01-01T11:53:49.713Z,18.98
2018-01-01T11:56:17.426Z,17.83
2018-01-01T12:01:19.082Z,7.90
2018-01-01T12:03:46.854Z,13.02
2018-01-01T12:06:14.575Z,10.75
2018-01-01T12:08:42.203Z,15.63
2018-01-01T12:11:09.756Z,18.92
2018-01-01T12:13:37.514Z,24.10
2018-01-01T12:16:05.282Z,24.83
2018-01-01T12:18:32.788Z,13.38
2018-01-01T12:21:00.301Z,17.37
2018-01-01T12:23:28.608Z,12.00
2018-01-01T12:25:57.026Z,12.60
2018-01-01T12:28:24.826Z,15.88
2018-01-01T12:30:52.540Z,12.73
2018-01-01T12:33:21.102Z,17.27
2018-01-01T12:35:49.450Z,21.87
2018-01-01T12:38:17.240Z,12.02
2018-01-01T12:40:45.223Z,24.23
2018-01-01T12:43:12.983Z,16.60
2018-01-01T12:45:40.743Z,17.52
2018-01-01T12:48:08.483Z,14.85
2018-01-01T12:50:37.074Z,22.48
2018-01-01T12:53:06.535Z,17.20
2018-01-01T12:55:34.360Z,17.62
2018-01-01T12:58:02.849Z,13.27
2018-01-01T13:00:31.180Z,20.10
2018-01-01T13:02:58.842Z,15.43
2018-01-01T13:05:26.512Z,16.67
2018-01-01T13:07:54.967Z,18.30
2018-01-01T13:10:22.770Z,15.65
2018-01-01T13:12:50.500Z,12.50
2018-01-01T13:15:18.473Z,15.32
2018-01-01T13:17:47.051Z,13.75
2018-01-01T13:20:14.914Z,13.50
2018-01-01T13:22:42.783Z,13.15
2018-01-01T13:25:10.505Z,13.60
2018-01-01T13:27:38.344Z,13.95
2018-01-01T13:30:06.914Z,14.13
2018-01-01T13:32:34.577Z,12.30
2018-01-01T13:35:02.486Z,11.30
2018-01-01T13:37:30.800Z,8.85
2018-01-01T13:39:58.525Z,9.18
2018-01-01T13:42:26.442Z,8.30
2018-01-01T13:44:54.348Z,12.73
2018-01-01T13:47:23.096Z,9.13
2018-01-01T13:49:51.016Z,7.55
2018-01-01T13:52:19.900Z,11.23
2018-01-01T13:54:47.604Z,5.75
2018-01-01T13:57:15.427Z,7.20
2018-01-01T13:59:43.706Z,4.22
2018-01-01T14:02:11.268Z,10.63
2018-01-01T14:04:39.703Z,5.40
2018-01-01T14:07:07.410Z,3.70
2018-01-01T14:09:35.042Z,4.62
2018-01-01T14:12:02.599Z,4.62
2018-01-01T14:14:30.161Z,3.62
2018-01-01T14:16:58.442Z,4.28
2018-01-01T14:19:26.707Z,7.25
2018-01-01T14:21:54.254Z,9.40
2018-01-01T14:24:21.749Z,9.50
2018-01-01T14:26:49.353Z,3.25
2018-01-01T14:29:17.013Z,5.10
2018-01-01T14:31:44.695Z,6.18
2018-01-01T14:34:12.210Z,4.00
2018-01-01T14:36:39.860Z,6.82
2018-01-01T14:39:07.409Z,2.80
2018-01-01T14:41:35.115Z,1.80
2018-01-01T14:44:02.622Z,0.90
2018-01-01T14:46:30.097Z,1.00
2018-01-01T14:48:57.746Z,1.10
2018-01-01T14:51:25.241Z,2.50
2018-01-01T14:53:53.586Z,0.90
2018-01-01T14:56:21.080Z,1.55
2018-01-01T14:58:48.791Z,0.75
2018-01-01T15:01:16.275Z,1.12
2018-01-01T15:03:43.765Z,1.25
2018-01-01T15:06:12.011Z,1.20
2018-01-01T15:08:39.618Z,1.00
2018-01-01T15:11:07.168Z,1.25
2018-01-01T15:13:34.640Z,0.95
2018-01-01T15:16:02.118Z,0.88
2018-01-01T15:18:29.621Z,1.27
2018-01-01T15:20:57.265Z,1.95
2018-01-01T15:23:24.825Z,1.40
2018-01-01T15:25:52.326Z,1.45
2018-01-01T15:28:19.806Z,2.55
2018-01-01T15:30:47.297Z,1.00
2018-01-01T15:33:14.961Z,1.60
2018-01-01T15:35:42.562Z,1.50
2018-01-01T15:38:10.061Z,1.85
2018-01-01T15:40:37.593Z,1.77
2018-01-01T15:43:05.187Z,1.05
2018-01-01T15:45:32.734Z,1.33
2018-01-01T15:48:00.397Z,1.50
2018-01-01T15:50:27.885Z,1.87
2018-01-01T15:52:55.366Z,1.00
2018-01-01T15:55:23.690Z,1.80
2018-01-01T15:57:51.311Z,1.00
2018-01-01T16:00:19.605Z,1.25
2018-01-01T16:02:47.294Z,1.40
2018-01-01T16:05:15.102Z,1.40
2018-01-01T16:07:42.672Z,1.55
2018-01-01T16:10:11.027Z,2.33
2018-01-01T16:12:38.510Z,1.73
2018-01-01T16:15:06.753Z,1.55
2018-01-01T16:17:34.453Z,1.30
2018-01-01T16:20:02.186Z,1.85
2018-01-01T16:22:29.674Z,1.50
2018-01-01T16:24:57.945Z,2.30
2018-01-01T16:27:26.269Z,1.52
2018-01-01T16:29:53.850Z,2.20
2018-01-01T16:32:21.325Z,1.52
2018-01-01T16:34:48.965Z,1.58
2018-01-01T16:37:16.562Z,2.67
2018-01-01T16:39:44.080Z,3.42
2018-01-01T16:42:11.606Z,4.32
2018-01-01T16:44:39.101Z,2.60
2018-01-01T16:47:06.616Z,2.83
2018-01-01T16:49:34.873Z,3.28
2018-01-01T16:52:02.382Z,3.37
2018-01-01T16:54:29.874Z,3.50
2018-01-01T16:56:57.358Z,3.50
2018-01-01T16:59:25.625Z,3.40
2018-01-01T17:01:53.861Z,4.03
2018-01-01T17:04:21.726Z,7.15
2018-01-01T17:06:49.594Z,5.37
2018-01-01T17:09:17.077Z,4.25
2018-01-01T17:11:44.542Z,5.35
2018-01-01T17:14:12.050Z,3.95
2018-01-01T17:16:39.630Z,5.57
2018-01-01T17:19:07.175Z,7.70
2018-01-01T17:21:34.735Z,8.82
2018-01-01T17:24:03.393Z,8.77
2018-01-01T17:26:30.869Z,8.23
2018-01-01T17:28:58.371Z,8.50
2018-01-01T17:31:25.874Z,7.70
2018-01-01T17:33:53.348Z,8.23
2018-01-01T17:36:20.983Z,9.48
2018-01-01T17:38:49.592Z,10.27
2018-01-01T17:41:17.548Z,9.85
2018-01-01T17:43:45.079Z,9.30
2018-01-01T17:46:12.565Z,10.10
2018-01-01T17:48:40.113Z,9.82
2018-01-01T17:51:08.367Z,10.27
2018-01-01T17:53:35.865Z,11.80
2018-01-01T17:56:03.346Z,9.70
2018-01-01T17:58:31.019Z,9.70
2018-01-01T18:00:58.569Z,10.05
2018-01-01T18:03:26.117Z,12.63
2018-01-01T18:05:53.603Z,10.95
2018-01-01T18:08:21.230Z,12.57
2018-01-01T18:10:48.797Z,11.10
2018-01-01T18:13:16.310Z,12.13
2018-01-01T18:15:43.906Z,12.45
2018-01-01T18:18:11.391Z,12.13
2018-01-01T18:20:38.886Z,12.82
2018-01-01T18:23:06.582Z,12.95
2018-01-01T18:25:34.113Z,11.20
2018-01-01T18:28:01.768Z,10.25
2018-01-01T18:30:29.266Z,11.20
2018-01-01T18:32:56.787Z,12.95
2018-01-01T18:35:24.262Z,12.07
2018-01-01T18:37:52.743Z,10.73
2018-01-01T18:40:21.322Z,10.00
2018-01-01T18:42:48.977Z,10.23
2018-01-01T18:45:17.265Z,10.15
2018-01-01T18:47:45.514Z,11.23
2018-01-01T18:50:12.984Z,9.23
2018-01-01T18:52:40.487Z,6.65
2018-01-01T18:55:08.110Z,5.82
2018-01-01T18:57:35.582Z,5.50
2018-01-01T19:00:03.194Z,6.37
2018-01-01T19:02:30.673Z,7.32
2018-01-01T19:04:58.145Z,9.95
2018-01-01T19:07:25.714Z,6.55
2018-01-01T19:09:53.242Z,9.07
2018-01-01T19:12:20.714Z,7.53
2018-01-01T19:14:48.231Z,10.65
2018-01-01T19:17:15.923Z,7.18
2018-01-01T19:19:43.595Z,7.95
2018-01-01T19:22:11.910Z,8.35
2018-01-01T19:24:39.450Z,6.05
2018-01-01T19:27:07.932Z,5.30
2018-01-01T19:29:35.474Z,4.05
2018-01-01T19:32:03.311Z,6.97
2018-01-01T19:34:30.810Z,4.00
2018-01-01T19:36:58.350Z,6.12
2018-01-01T19:39:25.842Z,4.68
2018-01-01T19:41:54.106Z,7.70
2018-01-01T19:44:21.576Z,7.47
2018-01-01T19:46:49.817Z,9.95
2018-01-01T19:49:18.097Z,6.35
2018-01-01T19:51:45.573Z,7.90
2018-01-01T19:54:13.042Z,9.02
2018-01-01T19:56:41.935Z,6.05
2018-01-01T19:59:10.182Z,7.60
2018-01-01T20:01:37.777Z,6.82
2018-01-01T20:04:06.108Z,6.97
2018-01-01T20:06:33.670Z,14.68
2018-01-01T20:09:01.282Z,8.82
2018-01-01T20:11:28.800Z,7.47
2018-01-01T20:13:56.360Z,7.45
2018-01-01T20:16:23.834Z,9.15
2018-01-01T20:18:51.372Z,8.98
2018-01-01T20:21:18.874Z,8.27
2018-01-01T20:23:47.134Z,10.32
2018-01-01T20:26:14.677Z,9.55
2018-01-01T20:28:42.134Z,9.35
2018-01-01T20:31:09.629Z,11.05
2018-01-01T20:33:38.031Z,11.02
2018-01-01T20:36:05.521Z,8.48
2018-01-01T20:38:32.988Z,6.78
2018-01-01T20:41:00.645Z,7.20
2018-01-01T20:43:28.118Z,8.15
2018-01-01T20:45:55.619Z,8.48
2018-01-01T20:48:23.125Z,7.30
2018-01-01T20:50:50.619Z,11.27
2018-01-01T20:53:18.861Z,6.65
2018-01-01T20:55:46.354Z,8.60
2018-01-01T20:58:14.638Z,7.18
2018-01-01T21:00:42.358Z,5.97
2018-01-01T21:03:10.017Z,7.45
2018-01-01T21:05:37.489Z,8.70
2018-01-01T21:08:05.117Z,6.93
2018-01-01T21:10:32.636Z,11.50
2018-01-01T21:13:00.117Z,9.05
2018-01-01T21:15:27.609Z,9.57
2018-01-01T21:17:55.353Z,15.68
2018-01-01T21:20:22.833Z,10.48
2018-01-01T21:22:50.489Z,12.27
2018-01-01T21:25:17.986Z,13.05
2018-01-01T21:27:46.234Z,14.45
2018-01-01T21:30:13.711Z,9.50
2018-01-01T21:32:41.346Z,12.23
2018-01-01T21:35:08.812Z,10.20
2018-01-01T21:37:36.334Z,13.95
2018-01-01T21:40:03.933Z,14.25
2018-01-01T21:42:31.507Z,11.30
2018-01-01T21:44:59.767Z,8.52
2018-01-01T21:47:27.403Z,10.15
2018-01-01T21:49:54.886Z,11.77
2018-01-01T21:52:22.380Z,13.10
2018-01-01T21:54:50.784Z,11.85
2018-01-01T21:57:18.261Z,18.45
2018-01-01T21:59:45.911Z,14.82
2018-01-01T22:02:13.563Z,11.90
2018-01-01T22:04:41.046Z,18.17
2018-01-01T22:07:08.601Z,22.65
2018-01-01T22:09:37.788Z,13.62
2018-01-01T22:12:05.451Z,19.33
2018-01-01T22:14:32.956Z,12.10
2018-01-01T22:17:00.490Z,14.02
2018-01-01T22:19:27.972Z,9.82
2018-01-01T22:21:55.449Z,13.07
2018-01-01T22:24:23.714Z,11.18
2018-01-01T22:26:51.181Z,9.43
2018-01-01T22:29:19.071Z,22.92
2018-01-01T22:31:46.591Z,16.50
2018-01-01T22:34:14.070Z,16.52
2018-01-01T22:36:42.323Z,10.20
2018-01-01T22:39:09.818Z,6.53
2018-01-01T22:41:38.098Z,7.82
2018-01-01T22:44:05.573Z,11.82
2018-01-01T22:46:33.090Z,11.30
2018-01-01T22:49:00.762Z,9.52
2018-01-01T22:51:28.277Z,10.07
2018-01-01T22:53:55.770Z,9.70
2018-01-01T22:56:24.103Z,11.02
2018-01-01T22:58:51.782Z,8.23
2018-01-01T23:01:19.462Z,11.52
2018-01-01T23:03:47.176Z,5.87
2018-01-01T23:06:14.875Z,6.90
2018-01-01T23:08:42.571Z,8.90
2018-01-01T23:11:10.985Z,6.03
2018-01-01T23:13:38.524Z,9.40
2018-01-01T23:16:06.172Z,6.28
2018-01-01T23:18:33.970Z,8.15
2018-01-01T23:21:02.376Z,7.85
2018-01-01T23:23:30.727Z,8.70
2018-01-01T23:25:58.292Z,15.25
2018-01-01T23:28:25.790Z,9.73
2018-01-01T23:30:53.461Z,7.28
2018-01-01T23:33:20.942Z,7.60
2018-01-01T23:35:48.689Z,9.50
2018-01-01T23:38:17.040Z,8.95
2018-01-01T23:40:45.287Z,11.07
2018-01-01T23:43:12.777Z,10.45
2018-01-01T23:45:40.283Z,8.52
2018-01-01T23:48:08.525Z,8.60
2018-01-01T23:50:36.011Z,8.70
2018-01-01T23:53:04.278Z,11.63
2018-01-01T23:55:31.749Z,14.30
2018-01-01T23:58:00.063Z,13.70
